Time;durP1;ratioP1;P1;durP2;ratioP2;P2;SDS_P1;SDS_P2;PMS_P1;PMS_P2;Temp;Humidity;BMP_temperature;BMP_pressure;BME280_temperature;BME280_humidity;BME280_pressure;Samples;Min_cycle;Max_cycle;Signal;HPM_P1;HPM_P2
2023/08/18 00:02:20;;;;;;;5.90;5.27;;;;;;;19.81;78.44;97988.41;5092416;28;20487;-74
2023/08/18 00:04:47;;;;;;;6.23;4.47;;;;;;;19.89;78.10;97990.66;5092655;28;20442;-75
2023/08/18 00:07:15;;;;;;;5.30;4.90;;;;;;;19.82;78.44;97990.03;5092226;28;20453;-75
2023/08/18 00:09:43;;;;;;;7.20;5.27;;;;;;;19.85;78.22;97978.53;5092418;28;20562;-75
2023/08/18 00:12:10;;;;;;;4.70;4.30;;;;;;;19.97;77.55;97976.44;5092628;28;20465;-75
2023/08/18 00:14:37;;;;;;;5.47;4.90;;;;;;;19.94;77.10;97971.44;5092017;28;20457;-75
2023/08/18 00:17:04;;;;;;;5.30;4.80;;;;;;;19.88;77.62;97971.69;5091472;28;20478;-75
2023/08/18 00:19:32;;;;;;;5.13;4.83;;;;;;;19.94;77.16;97967.88;5091402;28;20438;-75
2023/08/18 00:21:59;;;;;;;4.47;4.07;;;;;;;19.94;77.72;97976.94;5092133;28;20485;-75
2023/08/18 00:24:27;;;;;;;5.53;5.03;;;;;;;19.98;77.04;97961.59;5092302;28;20454;-75
2023/08/18 00:26:54;;;;;;;8.33;5.00;;;;;;;19.97;77.28;97970.94;5092123;28;20470;-76
2023/08/18 00:29:21;;;;;;;5.50;5.00;;;;;;;19.93;77.30;97958.81;5091954;28;20579;-74
2023/08/18 00:31:47;;;;;;;5.30;4.80;;;;;;;19.84;77.80;97968.63;5092069;28;20450;-75
2023/08/18 00:34:14;;;;;;;4.97;4.57;;;;;;;19.69;78.25;97963.03;5091780;28;20854;-76
2023/08/18 00:36:41;;;;;;;6.47;5.13;;;;;;;19.68;78.31;97966.88;5091618;28;20988;-75
2023/08/18 00:39:08;;;;;;;4.83;4.43;;;;;;;19.66;78.39;97966.31;5091844;28;20876;-75
2023/08/18 00:41:36;;;;;;;5.00;4.60;;;;;;;19.57;78.11;97973.34;5091676;28;20530;-76
2023/08/18 00:44:03;;;;;;;5.37;4.90;;;;;;;19.58;78.40;97966.78;5091444;28;20795;-75
2023/08/18 00:46:31;;;;;;;5.70;5.10;;;;;;;19.57;78.73;97965.13;5091713;28;20457;-75
2023/08/18 00:48:59;;;;;;;6.00;4.60;;;;;;;19.55;78.55;97962.63;5091965;28;20472;-75
2023/08/18 00:51:26;;;;;;;5.33;4.83;;;;;;;19.51;78.75;97971.66;5091931;28;20525;-75
2023/08/18 00:53:53;;;;;;;5.23;4.43;;;;;;;19.50;78.44;97969.97;5091252;28;20485;-75
2023/08/18 00:56:20;;;;;;;5.00;4.60;;;;;;;19.34;79.22;97967.09;5091493;28;20991;-75
2023/08/18 00:58:48;;;;;;;6.30;5.20;;;;;;;19.26;79.44;97969.47;5091344;28;20450;-75
2023/08/18 01:01:15;;;;;;;5.00;4.53;;;;;;;19.34;79.56;97967.09;5091307;28;20484;-75
2023/08/18 01:03:42;;;;;;;5.50;5.00;;;;;;;19.32;79.06;97962.94;5091320;28;20453;-75
2023/08/18 01:06:09;;;;;;;6.00;5.40;;;;;;;19.23;79.40;97957.09;5091574;28;20461;-75
2023/08/18 01:08:36;;;;;;;5.80;5.40;;;;;;;19.19;79.75;97953.22;5091304;28;20506;-75
2023/08/18 01:11:07;;;;;;;5.70;5.20;;;;;;;19.14;80.07;97950.44;5090756;28;20507;-75
2023/08/18 01:13:38;;;;;;;6.17;5.57;;;;;;;19.09;80.18;97947.66;5091338;28;20540;-75
2023/08/18 01:16:11;;;;;;;5.47;4.70;;;;;;;19.11;80.39;97956.44;5091430;28;21047;-75
2023/08/18 01:18:39;;;;;;;4.97;4.57;;;;;;;18.98;80.38;97946.69;5091636;28;20438;-75
2023/08/18 01:21:11;;;;;;;6.13;4.50;;;;;;;18.96;80.92;97953.53;5091182;28;20475;-74
2023/08/18 01:23:39;;;;;;;5.60;5.10;;;;;;;18.96;80.66;97942.56;5091144;28;20438;-74
2023/08/18 01:26:06;;;;;;;5.20;4.70;;;;;;;18.87;80.75;97939.44;5090674;28;20524;-74
2023/08/18 01:28:34;;;;;;;6.67;5.30;;;;;;;18.98;80.67;97943.97;5091235;28;20480;-74
2023/08/18 01:31:04;;;;;;;5.83;5.40;;;;;;;18.96;80.11;97939.81;5090830;28;20522;-74
2023/08/18 01:33:34;;;;;;;6.13;5.10;;;;;;;18.93;80.43;97943.06;5090801;28;20506;-74
2023/08/18 01:36:04;;;;;;;5.90;5.40;;;;;;;18.92;80.33;97952.38;5090736;28;20851;-74
2023/08/18 01:38:31;;;;;;;5.40;5.00;;;;;;;18.89;80.39;97952.91;5091114;28;20433;-74
2023/08/18 01:41:00;;;;;;;5.13;4.73;;;;;;;18.86;80.52;97946.00;5091087;28;20470;-74
2023/08/18 01:43:27;;;;;;;6.10;5.33;;;;;;;18.70;80.60;97942.28;5090672;28;20559;-74
2023/08/18 01:45:54;;;;;;;5.90;5.37;;;;;;;18.69;80.35;97942.53;5090860;28;20460;-74
2023/08/18 01:48:21;;;;;;;5.50;4.80;;;;;;;18.71;80.07;97946.69;5090460;28;20483;-74
2023/08/18 01:50:48;;;;;;;5.23;4.83;;;;;;;18.58;80.60;97951.69;5090321;28;21010;-74
2023/08/18 01:53:15;;;;;;;5.13;4.70;;;;;;;18.67;79.98;97959.25;5090811;28;20460;-75
2023/08/18 01:55:43;;;;;;;5.30;4.90;;;;;;;18.76;79.76;97949.50;5089926;28;20460;-74
2023/08/18 01:58:11;;;;;;;5.33;4.83;;;;;;;18.72;79.45;97953.81;5090681;28;20441;-74
2023/08/18 02:00:38;;;;;;;5.37;4.87;;;;;;;18.85;79.04;97946.28;5090200;28;20571;-74
2023/08/18 02:03:05;;;;;;;4.93;4.47;;;;;;;18.79;79.23;97945.41;5090019;28;21016;-74
2023/08/18 02:05:31;;;;;;;5.70;5.10;;;;;;;18.73;79.48;97944.53;5090189;28;20522;-74
2023/08/18 02:07:59;;;;;;;5.10;4.70;;;;;;;18.74;79.39;97945.34;5090334;28;20953;-74
2023/08/18 02:10:26;;;;;;;4.60;4.27;;;;;;;18.81;78.86;97945.16;5090089;28;20446;-75
2023/08/18 02:12:52;;;;;;;6.40;4.53;;;;;;;18.82;79.04;97941.31;5089393;28;20452;-75
2023/08/18 02:15:21;;;;;;;4.97;4.60;;;;;;;18.75;79.42;97933.28;5088745;28;20493;-74
2023/08/18 02:17:47;;;;;;;5.50;5.00;;;;;;;18.76;79.49;97938.53;5090128;28;20524;-75
2023/08/18 02:20:14;;;;;;;4.90;4.47;;;;;;;18.70;79.55;97935.97;5090164;28;20445;-74
2023/08/18 02:22:41;;;;;;;4.80;4.20;;;;;;;18.65;79.85;97944.13;5090250;28;20903;-74
2023/08/18 02:25:08;;;;;;;5.67;4.70;;;;;;;18.58;80.08;97932.50;5089776;28;20506;-74
2023/08/18 02:27:35;;;;;;;5.23;4.80;;;;;;;18.46;80.56;97933.47;5090271;28;20473;-75
2023/08/18 02:30:03;;;;;;;5.77;5.27;;;;;;;18.51;80.52;97929.97;5090526;28;20853;-73
2023/08/18 02:32:31;;;;;;;11.33;5.03;;;;;;;18.51;80.68;97929.16;5089550;28;20480;-74
2023/08/18 02:34:58;;;;;;;6.60;4.60;;;;;;;18.48;80.72;97929.66;5089878;28;20449;-75
2023/08/18 02:37:25;;;;;;;6.03;4.10;;;;;;;18.41;81.20;97935.31;5090084;28;20456;-74
2023/08/18 02:39:51;;;;;;;5.37;4.87;;;;;;;18.43;81.24;97931.25;5089851;28;20441;-74
2023/08/18 02:42:19;;;;;;;5.03;4.63;;;;;;;18.59;80.33;97925.94;5089563;28;21016;-74
2023/08/18 02:44:47;;;;;;;5.63;5.07;;;;;;;18.42;80.81;97926.03;5089375;28;20534;-75
2023/08/18 02:47:14;;;;;;;5.37;4.90;;;;;;;18.43;80.87;97930.41;5089380;28;20447;-74
2023/08/18 02:49:42;;;;;;;5.50;5.00;;;;;;;18.47;80.85;97920.59;5089969;28;20451;-74
2023/08/18 02:52:09;;;;;;;6.80;5.40;;;;;;;18.52;80.55;97926.13;5089726;28;20445;-74
2023/08/18 02:54:36;;;;;;;5.10;4.70;;;;;;;18.46;80.50;97917.03;5071297;28;20456;-74
2023/08/18 02:57:02;;;;;;;5.23;4.53;;;;;;;18.40;80.61;97915.31;5089648;28;20468;-75
2023/08/18 02:59:29;;;;;;;5.57;5.00;;;;;;;18.32;81.03;97914.91;5089462;28;20552;-74
2023/08/18 03:01:56;;;;;;;5.20;4.70;;;;;;;18.38;81.25;97902.94;5089937;28;20561;-74
2023/08/18 03:04:23;;;;;;;6.10;5.60;;;;;;;18.30;81.34;97909.69;5089678;28;20449;-74
2023/08/18 03:06:51;;;;;;;5.80;4.60;;;;;;;18.42;81.26;97904.09;5089609;28;20497;-75
2023/08/18 03:09:18;;;;;;;5.20;4.70;;;;;;;18.33;81.91;97913.84;5089100;28;20495;-75
2023/08/18 03:11:44;;;;;;;6.10;5.60;;;;;;;18.27;82.31;97909.38;5089638;28;20481;-75
2023/08/18 03:14:13;;;;;;;5.97;5.37;;;;;;;18.28;82.18;97898.16;5089371;28;21032;-75
2023/08/18 03:16:39;;;;;;;6.83;6.23;;;;;;;18.30;82.74;97914.34;5089373;28;20487;-76
2023/08/18 03:19:06;;;;;;;8.10;7.07;;;;;;;18.36;82.48;97911.44;5089409;28;20442;-73
2023/08/18 03:21:33;;;;;;;7.33;6.73;;;;;;;18.38;82.74;97913.91;5089596;28;20553;-74
2023/08/18 03:24:01;;;;;;;7.10;6.40;;;;;;;18.45;82.38;97904.41;5089101;28;20491;-74
2023/08/18 03:26:27;;;;;;;7.63;7.03;;;;;;;18.46;82.43;97906.06;5089432;28;20484;-74
2023/08/18 03:28:56;;;;;;;7.10;6.57;;;;;;;18.34;82.79;97904.53;5089113;28;20441;-74
2023/08/18 03:31:23;;;;;;;7.47;6.40;;;;;;;18.35;83.00;97904.28;5089573;28;20498;-74
2023/08/18 03:33:50;;;;;;;7.37;6.67;;;;;;;18.48;82.65;97905.81;5089126;28;20536;-74
2023/08/18 03:36:17;;;;;;;6.73;6.20;;;;;;;18.44;82.50;97901.94;5089299;28;20468;-74
2023/08/18 03:38:43;;;;;;;7.77;7.17;;;;;;;18.30;83.20;97906.13;5089717;28;20911;-74
2023/08/18 03:41:12;;;;;;;7.67;6.60;;;;;;;18.32;83.16;97901.22;5089284;28;20472;-74
2023/08/18 03:43:39;;;;;;;8.17;7.37;;;;;;;18.29;83.18;97918.16;5089070;28;20583;-74
2023/08/18 03:46:17;;;;;;;6.47;6.07;;;;;;;18.18;83.50;97914.50;5089055;28;20469;-75
2023/08/18 03:48:44;;;;;;;7.00;6.40;;;;;;;18.09;83.83;97911.34;5089298;28;20528;-75
2023/08/18 03:51:11;;;;;;;7.17;6.47;;;;;;;18.18;83.33;97897.22;5089094;28;20457;-74
2023/08/18 03:53:38;;;;;;;10.00;6.80;;;;;;;18.08;83.57;97909.69;5088437;28;20975;-74
2023/08/18 03:56:05;;;;;;;7.20;6.50;;;;;;;18.21;83.11;97913.13;5092552;28;20504;-74
2023/08/18 03:58:34;;;;;;;7.20;6.60;;;;;;;18.02;83.37;97907.97;5093066;28;20441;-74
2023/08/18 04:01:04;;;;;;;7.47;6.17;;;;;;;18.02;83.54;97909.88;5092478;28;20449;-74
2023/08/18 04:03:31;;;;;;;8.30;6.60;;;;;;;18.03;83.42;97906.06;5092468;28;20493;-74
2023/08/18 04:05:58;;;;;;;9.10;6.50;;;;;;;18.04;83.28;97907.72;5092782;28;20477;-74
2023/08/18 04:08:25;;;;;;;7.47;6.87;;;;;;;18.06;83.27;97906.38;5092846;28;20504;-74
2023/08/18 04:10:52;;;;;;;7.53;6.83;;;;;;;18.10;82.90;97903.97;5092467;28;20532;-74
2023/08/18 04:13:19;;;;;;;8.33;6.23;;;;;;;18.24;82.46;97907.13;5091581;28;20473;-74
2023/08/18 04:15:47;;;;;;;6.53;5.90;;;;;;;18.30;82.23;97906.97;5091658;28;20780;-74
2023/08/18 04:18:14;;;;;;;6.50;6.00;;;;;;;18.35;81.92;97906.19;5091711;28;20477;-74
2023/08/18 04:20:41;;;;;;;6.73;6.10;;;;;;;18.30;82.04;97906.13;5091987;28;20461;-74
2023/08/18 04:23:08;;;;;;;7.67;6.97;;;;;;;18.16;82.44;97905.69;5092183;28;20493;-73
2023/08/18 04:25:35;;;;;;;6.83;6.23;;;;;;;18.14;82.83;97910.59;5091646;28;20465;-74
2023/08/18 04:28:01;;;;;;;6.83;6.23;;;;;;;18.35;81.97;97914.41;5091971;28;20548;-74
2023/08/18 04:30:28;;;;;;;6.87;6.27;;;;;;;18.38;81.79;97919.38;5091725;28;20540;-74
2023/08/18 04:32:56;;;;;;;7.53;6.40;;;;;;;18.30;82.33;97917.09;5091606;28;20437;-74
2023/08/18 04:35:23;;;;;;;6.73;6.13;;;;;;;18.20;82.34;97928.72;5091212;28;20477;-74
2023/08/18 04:37:50;;;;;;;7.00;6.50;;;;;;;18.11;83.06;97928.38;5091542;28;21366;-74
2023/08/18 04:40:17;;;;;;;6.90;6.20;;;;;;;18.23;82.51;97925.50;5091499;28;20436;-74
2023/08/18 04:42:44;;;;;;;8.90;6.77;;;;;;;18.35;81.67;97930.84;5091774;28;20483;-74
2023/08/18 04:45:11;;;;;;;7.20;6.50;;;;;;;18.47;81.36;97931.56;5091341;28;20519;-74
2023/08/18 04:47:38;;;;;;;8.17;6.27;;;;;;;18.42;81.27;97934.25;5091352;28;20947;-74
2023/08/18 04:50:07;;;;;;;6.00;5.40;;;;;;;18.42;80.89;97929.59;5091152;28;20520;-74
2023/08/18 04:52:34;;;;;;;6.60;5.20;;;;;;;18.48;80.40;97937.88;5091345;28;20456;-74
2023/08/18 04:55:01;;;;;;;5.87;5.37;;;;;;;18.58;80.05;97935.25;5091230;28;20532;-74
2023/08/18 04:57:27;;;;;;;5.70;5.17;;;;;;;18.54;80.29;97940.41;5091023;28;20445;-74
2023/08/18 04:59:54;;;;;;;7.63;6.20;;;;;;;18.51;80.51;97938.19;5090904;28;20457;-74
2023/08/18 05:02:21;;;;;;;6.30;5.80;;;;;;;18.45;81.03;97941.97;5090627;28;20451;-74
2023/08/18 05:04:48;;;;;;;6.60;5.90;;;;;;;18.45;80.77;97941.97;5090658;28;20477;-74
2023/08/18 05:07:16;;;;;;;7.23;5.80;;;;;;;18.29;81.85;97943.66;5090632;28;20438;-74
2023/08/18 05:09:42;;;;;;;7.03;6.33;;;;;;;18.48;81.35;97946.09;5090998;28;20441;-75
2023/08/18 05:12:09;;;;;;;6.33;5.73;;;;;;;18.41;81.64;97952.59;5091180;28;21046;-75
2023/08/18 05:14:36;;;;;;;6.20;5.60;;;;;;;18.43;81.44;97947.69;5090459;28;20461;-74
2023/08/18 05:17:03;;;;;;;6.20;5.60;;;;;;;18.39;81.29;97941.06;5090742;28;20552;-74
2023/08/18 05:19:30;;;;;;;7.30;6.20;;;;;;;18.51;81.37;97949.16;5090937;28;20434;-74
2023/08/18 05:21:57;;;;;;;6.50;5.90;;;;;;;18.58;80.97;97944.28;5090615;28;20467;-75
2023/08/18 05:24:26;;;;;;;6.90;6.30;;;;;;;18.70;80.72;97950.50;5090170;28;20500;-74
2023/08/18 05:26:52;;;;;;;6.13;5.60;;;;;;;18.72;80.62;97950.25;5090280;28;20441;-74
2023/08/18 05:29:19;;;;;;;5.43;4.93;;;;;;;18.90;79.83;97949.06;5090902;28;21004;-76
2023/08/18 05:31:46;;;;;;;7.40;4.90;;;;;;;18.90;79.61;97949.06;5090312;28;21037;-73
2023/08/18 05:34:13;;;;;;;5.07;4.57;;;;;;;18.96;79.17;97953.53;5090175;28;21027;-74
2023/08/18 05:36:40;;;;;;;4.70;4.40;;;;;;;18.96;79.00;97948.88;5090685;28;20477;-73
2023/08/18 05:39:06;;;;;;;5.13;4.53;;;;;;;19.07;78.90;97949.81;5090601;28;20830;-74
2023/08/18 05:41:35;;;;;;;5.53;5.03;;;;;;;19.17;78.33;97949.91;5090602;28;20445;-74
2023/08/18 05:44:01;;;;;;;5.27;4.77;;;;;;;19.33;77.60;97953.63;5089771;28;20484;-74
2023/08/18 05:46:28;;;;;;;5.07;4.57;;;;;;;19.41;76.93;97950.41;5090249;28;20552;-74
2023/08/18 05:48:57;;;;;;;4.60;4.20;;;;;;;19.56;77.00;97952.47;5090448;28;20457;-74
2023/08/18 05:51:23;;;;;;;6.23;4.67;;;;;;;19.58;76.47;97950.31;5090340;28;20496;-74
2023/08/18 05:53:51;;;;;;;5.67;4.70;;;;;;;19.62;76.81;97941.28;5089822;28;20953;-74
2023/08/18 05:56:18;;;;;;;4.93;4.10;;;;;;;19.62;76.49;97949.53;5090033;28;20461;-74
2023/08/18 05:58:46;;;;;;;4.10;3.67;;;;;;;19.81;76.08;97949.94;5089904;28;20470;-74
2023/08/18 06:01:14;;;;;;;3.97;3.67;;;;;;;19.90;75.39;97953.84;5090302;28;20449;-74
2023/08/18 06:03:41;;;;;;;4.37;3.97;;;;;;;20.00;75.05;97953.09;5089843;28;20516;-74
2023/08/18 06:06:08;;;;;;;3.90;3.60;;;;;;;20.03;74.66;97952.56;5089915;28;20514;-75
2023/08/18 06:08:35;;;;;;;4.60;3.80;;;;;;;20.27;73.85;97953.81;5089555;28;20504;-75
2023/08/18 06:11:01;;;;;;;4.30;3.90;;;;;;;20.18;74.51;97958.13;5089899;28;20564;-75
2023/08/18 06:13:28;;;;;;;4.83;4.33;;;;;;;20.32;73.72;97961.25;5088948;28;20446;-75
2023/08/18 06:15:56;;;;;;;4.10;3.70;;;;;;;20.57;73.37;97964.16;5089784;28;20460;-75
2023/08/18 06:18:23;;;;;;;3.90;3.60;;;;;;;20.61;72.16;97957.03;5089056;28;20448;-74
2023/08/18 06:20:51;;;;;;;3.70;3.20;;;;;;;20.50;72.34;97970.97;5089842;28;20457;-75
2023/08/18 06:23:18;;;;;;;4.13;3.83;;;;;;;20.63;72.36;97965.84;5089625;28;20576;-75
2023/08/18 06:25:44;;;;;;;4.27;3.90;;;;;;;20.64;72.42;97945.47;5089401;28;20548;-75
2023/08/18 06:28:11;;;;;;;4.20;3.37;;;;;;;20.77;72.10;97971.66;5089779;28;20466;-75
2023/08/18 06:30:38;;;;;;;5.97;3.90;;;;;;;20.87;72.79;97973.63;5089632;28;20449;-75
2023/08/18 06:33:06;;;;;;;4.47;3.97;;;;;;;20.84;71.75;97974.97;5089314;28;20461;-75
2023/08/18 06:35:33;;;;;;;4.20;3.73;;;;;;;20.88;71.41;97970.59;5089127;28;20468;-75
2023/08/18 06:38:00;;;;;;;4.63;3.30;;;;;;;21.27;70.76;97970.16;5089462;28;20476;-74
2023/08/18 06:40:27;;;;;;;3.67;3.37;;;;;;;21.55;69.66;97974.34;5089613;28;20441;-75
2023/08/18 06:42:53;;;;;;;3.80;3.50;;;;;;;21.94;67.72;97978.19;5089313;28;20527;-75
2023/08/18 06:45:20;;;;;;;3.77;3.50;;;;;;;22.13;66.30;97982.03;5089043;28;20890;-75
2023/08/18 06:47:47;;;;;;;3.60;3.30;;;;;;;22.61;63.41;97976.97;5089653;28;20441;-75
2023/08/18 06:50:15;;;;;;;4.50;3.60;;;;;;;22.94;63.93;97974.66;5088763;28;20517;-75
2023/08/18 06:52:42;;;;;;;4.10;3.30;;;;;;;23.19;61.75;97988.31;5088111;28;20590;-75
2023/08/18 06:55:13;;;;;;;4.53;3.47;;;;;;;23.50;62.28;97991.72;5087934;28;20620;-75
2023/08/18 06:57:40;;;;;;;3.20;2.87;;;;;;;23.79;60.86;97991.78;5089561;28;20445;-75
2023/08/18 07:00:09;;;;;;;3.73;2.60;;;;;;;24.35;58.94;97983.03;5089357;28;20520;-75
2023/08/18 07:02:36;;;;;;;4.27;3.87;;;;;;;24.81;56.57;97988.03;5089221;28;20456;-75
2023/08/18 07:05:05;;;;;;;3.50;3.10;;;;;;;25.12;55.80;97986.53;5088734;28;20564;-75
2023/08/18 07:07:34;;;;;;;3.93;3.30;;;;;;;25.00;55.00;97980.63;5089226;28;20575;-75
2023/08/18 07:10:01;;;;;;;2.83;2.63;;;;;;;25.03;55.38;97980.84;5089310;28;20448;-75
2023/08/18 07:12:28;;;;;;;3.00;2.70;;;;;;;25.11;55.95;97969.09;5089410;28;20448;-75
2023/08/18 07:14:55;;;;;;;3.30;2.80;;;;;;;25.77;53.58;97978.41;5088646;28;20508;-75
2023/08/18 07:17:21;;;;;;;2.50;2.30;;;;;;;26.13;52.87;97983.34;5089454;28;20502;-75
2023/08/18 07:19:48;;;;;;;3.47;2.90;;;;;;;25.88;52.27;97974.34;5089181;28;20495;-75
2023/08/18 07:22:15;;;;;;;3.33;2.87;;;;;;;25.84;53.07;97976.06;5088679;28;20437;-75
2023/08/18 07:24:43;;;;;;;4.30;2.80;;;;;;;25.66;52.06;97974.16;5087935;28;20580;-75
2023/08/18 07:27:10;;;;;;;2.90;2.50;;;;;;;25.71;51.80;97972.09;5089076;28;20509;-75
2023/08/18 07:29:37;;;;;;;3.53;3.00;;;;;;;26.01;51.95;97973.53;5091797;28;20524;-75
2023/08/18 07:32:04;;;;;;;3.13;2.80;;;;;;;26.31;51.34;97975.00;5092984;28;20441;-76
2023/08/18 07:34:31;;;;;;;3.50;3.20;;;;;;;26.37;51.58;97979.31;5092354;28;20488;-76
2023/08/18 07:36:58;;;;;;;3.20;2.90;;;;;;;26.16;51.60;97991.06;5093149;28;20449;-76
2023/08/18 07:39:25;;;;;;;3.00;2.80;;;;;;;25.97;51.90;97991.13;5092866;28;20524;-75
2023/08/18 07:41:53;;;;;;;6.37;3.20;;;;;;;26.31;51.30;97990.84;5092573;28;20455;-76
2023/08/18 07:44:20;;;;;;;3.20;3.00;;;;;;;26.63;49.83;97987.16;5092316;28;20588;-75
2023/08/18 07:46:47;;;;;;;4.20;2.77;;;;;;;26.65;48.71;97991.25;5093155;28;20515;-75
2023/08/18 07:49:13;;;;;;;3.30;2.97;;;;;;;26.78;49.86;97987.66;5092637;28;20445;-75
2023/08/18 07:51:41;;;;;;;5.10;2.87;;;;;;;27.10;47.57;97992.31;5092542;28;20607;-76
2023/08/18 07:54:08;;;;;;;3.40;2.77;;;;;;;27.22;48.61;97986.22;5091954;28;20889;-75
2023/08/18 07:56:34;;;;;;;3.00;2.70;;;;;;;27.50;47.76;97995.31;5092361;28;20528;-76
2023/08/18 07:59:03;;;;;;;4.40;2.90;;;;;;;27.50;46.64;97995.31;5092568;28;20441;-76
2023/08/18 08:01:30;;;;;;;3.37;3.00;;;;;;;28.14;45.36;97997.97;5092858;28;20441;-75
2023/08/18 08:03:56;;;;;;;2.80;2.30;;;;;;;28.31;45.56;97993.34;5092191;28;20510;-75
2023/08/18 08:06:23;;;;;;;3.37;2.67;;;;;;;28.77;45.01;97986.53;5092243;28;20484;-76
2023/08/18 08:08:50;;;;;;;3.20;2.53;;;;;;;28.71;44.00;97990.59;5092088;28;20507;-76
2023/08/18 08:11:17;;;;;;;2.90;2.70;;;;;;;28.71;44.11;97988.63;5092219;28;20471;-76
2023/08/18 08:13:44;;;;;;;3.37;2.70;;;;;;;29.26;42.35;97985.38;5091682;28;20464;-76
2023/08/18 08:16:12;;;;;;;3.67;2.73;;;;;;;29.53;42.37;97989.88;5092008;28;20465;-76
2023/08/18 08:18:39;;;;;;;3.23;2.93;;;;;;;28.68;43.82;97988.44;5092368;28;20449;-76
2023/08/18 08:21:06;;;;;;;4.07;2.40;;;;;;;29.38;42.67;97987.53;5092048;28;20481;-76
2023/08/18 08:23:33;;;;;;;2.97;2.60;;;;;;;29.79;41.58;97980.69;5091502;28;20793;-76
2023/08/18 08:26:00;;;;;;;3.10;2.83;;;;;;;29.99;41.94;97980.88;5091807;28;21040;-75
2023/08/18 08:28:27;;;;;;;3.13;2.73;;;;;;;30.25;41.38;97983.59;5091969;28;20495;-76
2023/08/18 08:30:54;;;;;;;2.53;2.33;;;;;;;30.63;39.92;97978.09;5091304;28;20972;-75
2023/08/18 08:33:22;;;;;;;3.00;2.70;;;;;;;30.43;40.06;97989.97;5091346;28;20445;-75
2023/08/18 08:35:49;;;;;;;2.70;2.50;;;;;;;30.89;39.88;97975.19;5091532;28;20462;-75
2023/08/18 08:38:16;;;;;;;2.60;2.40;;;;;;;31.71;38.65;97978.50;5091834;28;20790;-76
2023/08/18 08:40:43;;;;;;;3.10;2.80;;;;;;;32.05;37.32;97972.59;5091012;28;20453;-76
2023/08/18 08:43:10;;;;;;;3.83;3.00;;;;;;;30.79;37.52;97980.34;5091467;28;20968;-76
2023/08/18 08:45:38;;;;;;;3.70;2.60;;;;;;;30.12;39.11;97975.44;5091097;28;20939;-76
2023/08/18 08:48:07;;;;;;;2.87;2.67;;;;;;;30.90;37.73;97967.63;5091396;28;20442;-76
2023/08/18 08:50:40;;;;;;;2.47;2.27;;;;;;;30.89;36.49;97974.34;5091596;28;20532;-75
2023/08/18 08:53:08;;;;;;;2.50;2.30;;;;;;;30.97;35.69;97970.69;5091852;28;20767;-76
2023/08/18 08:55:35;;;;;;;4.23;2.50;;;;;;;30.76;35.82;97981.03;5090381;28;20461;-76
2023/08/18 08:58:02;;;;;;;5.00;2.67;;;;;;;31.01;35.14;97975.28;5091183;28;20874;-76
2023/08/18 09:00:30;;;;;;;3.77;2.03;;;;;;;30.80;35.92;97974.41;5091343;28;20446;-75
2023/08/18 09:03:00;;;;;;;3.00;2.37;;;;;;;30.77;36.22;97975.09;5091325;28;20532;-76
2023/08/18 09:05:29;;;;;;;3.20;2.40;;;;;;;30.70;36.21;97978.41;5090423;28;20484;-76
2023/08/18 09:07:57;;;;;;;2.40;2.20;;;;;;;30.38;37.70;97971.41;5091072;28;20488;-75
2023/08/18 09:10:25;;;;;;;3.30;2.57;;;;;;;31.23;36.11;97993.78;5092617;28;20449;-76
2023/08/18 09:12:52;;;;;;;2.53;1.97;;;;;;;31.77;35.90;97977.13;5091157;28;20472;-76
2023/08/18 09:15:19;;;;;;;2.30;2.10;;;;;;;32.30;35.77;97979.09;5090435;28;20469;-76
2023/08/18 09:17:46;;;;;;;3.77;2.30;;;;;;;32.14;35.92;97974.50;5090936;28;20476;-76
2023/08/18 09:20:13;;;;;;;2.90;2.30;;;;;;;32.20;35.01;97984.28;5091032;28;20524;-76
2023/08/18 09:22:40;;;;;;;2.80;2.27;;;;;;;32.03;34.57;97969.31;5090523;28;21009;-76
2023/08/18 09:25:09;;;;;;;2.40;2.20;;;;;;;31.73;34.62;97973.38;5090156;28;20583;-76
2023/08/18 09:27:37;;;;;;;3.20;2.43;;;;;;;32.77;34.33;97980.75;5090487;28;20945;-76
2023/08/18 09:30:04;;;;;;;2.90;2.60;;;;;;;32.28;34.22;97986.22;5090924;28;20464;-76
2023/08/18 09:32:31;;;;;;;2.30;2.10;;;;;;;32.47;34.43;97977.28;5090607;28;20437;-76
2023/08/18 09:34:58;;;;;;;2.97;2.67;;;;;;;32.21;34.46;97978.38;5090073;28;20468;-76
2023/08/18 09:37:30;;;;;;;2.53;2.33;;;;;;;32.17;35.17;97980.19;5090395;28;20944;-75
2023/08/18 09:39:57;;;;;;;2.67;2.43;;;;;;;32.17;35.33;97984.97;5090344;28;20445;-75
2023/08/18 09:42:25;;;;;;;2.93;2.70;;;;;;;32.22;35.30;97976.38;5090736;28;20528;-76
2023/08/18 09:44:52;;;;;;;2.70;2.17;;;;;;;33.10;34.48;97970.25;5089804;28;20493;-76
2023/08/18 09:47:20;;;;;;;3.23;2.63;;;;;;;33.41;33.14;97966.03;5089977;28;20955;-76
2023/08/18 09:49:47;;;;;;;2.50;2.30;;;;;;;33.27;33.55;97964.41;5090082;28;20847;-76
2023/08/18 09:52:16;;;;;;;2.53;2.33;;;;;;;33.75;32.95;97965.47;5090472;28;20445;-76
2023/08/18 09:54:46;;;;;;;3.40;2.63;;;;;;;34.14;31.25;97957.34;5089645;28;20475;-76
2023/08/18 09:57:30;;;;;;;3.43;2.73;;;;;;;33.06;33.94;97958.09;5089535;28;20445;-76
2023/08/18 09:59:59;;;;;;;2.33;2.20;;;;;;;34.14;31.55;97951.72;5089994;28;20522;-76
2023/08/18 10:02:30;;;;;;;2.40;2.20;;;;;;;34.67;31.40;97956.81;5089990;28;20441;-76
2023/08/18 10:04:57;;;;;;;2.83;2.57;;;;;;;35.34;30.07;97951.28;5089512;28;20513;-77
2023/08/18 10:07:24;;;;;;;2.93;2.73;;;;;;;34.79;31.36;97955.09;5089830;28;20525;-76
2023/08/18 10:09:52;;;;;;;3.97;2.37;;;;;;;35.25;29.19;97956.25;5090031;28;20532;-76
2023/08/18 10:12:19;;;;;;;3.17;2.30;;;;;;;34.24;30.70;97954.03;5089891;28;20480;-76
2023/08/18 10:14:47;;;;;;;2.67;2.00;;;;;;;34.14;31.76;97951.72;5089258;28;20487;-76
2023/08/18 10:17:16;;;;;;;2.37;2.17;;;;;;;34.66;30.66;97949.56;5089610;28;20449;-76
2023/08/18 10:19:47;;;;;;;2.90;2.33;;;;;;;34.21;31.00;97955.56;5090068;28;20442;-77
2023/08/18 10:22:15;;;;;;;2.20;2.00;;;;;;;34.51;30.81;97957.97;5089638;28;20880;-76
2023/08/18 10:24:44;;;;;;;2.53;2.00;;;;;;;33.87;32.56;97948.56;5089308;28;20899;-76
2023/08/18 10:27:12;;;;;;;3.53;2.10;;;;;;;33.76;30.73;97949.44;5089410;28;20440;-76
2023/08/18 10:29:43;;;;;;;3.00;2.20;;;;;;;33.77;30.78;97951.06;5089441;28;20445;-75
2023/08/18 10:32:11;;;;;;;3.30;2.10;;;;;;;33.15;31.85;97950.34;5089436;28;20445;-76
2023/08/18 10:34:40;;;;;;;2.33;2.07;;;;;;;33.03;32.82;97951.19;5089375;28;20554;-76
2023/08/18 10:37:10;;;;;;;3.07;2.20;;;;;;;32.87;31.90;97941.81;5089612;28;20441;-75
2023/08/18 10:39:37;;;;;;;2.47;2.00;;;;;;;33.28;33.53;97940.78;5089515;28;20457;-76
2023/08/18 10:42:07;;;;;;;3.10;2.30;;;;;;;33.90;31.70;97939.44;5089186;28;20445;-76
2023/08/18 10:44:33;;;;;;;3.00;2.30;;;;;;;34.10;32.57;97937.59;5089012;28;20913;-76
2023/08/18 10:47:02;;;;;;;2.20;2.00;;;;;;;34.04;31.59;97939.03;5089348;28;20485;-76
2023/08/18 10:49:29;;;;;;;2.40;2.20;;;;;;;33.71;32.25;97936.44;5089060;28;20429;-77
2023/08/18 10:51:57;;;;;;;2.80;2.20;;;;;;;33.32;31.81;97936.09;5089235;28;20606;-76
2023/08/18 10:54:24;;;;;;;3.23;2.37;;;;;;;34.15;31.43;97928.06;5088454;28;20460;-76
2023/08/18 10:56:51;;;;;;;2.93;2.40;;;;;;;35.15;30.26;97923.84;5088871;28;20509;-76
2023/08/18 10:59:19;;;;;;;2.60;2.20;;;;;;;34.79;30.18;97922.19;5089497;28;20441;-76
2023/08/18 11:01:45;;;;;;;2.70;2.13;;;;;;;34.76;30.70;97927.72;5089298;28;20510;-75
2023/08/18 11:04:15;;;;;;;2.13;1.93;;;;;;;34.77;30.58;97920.88;5090914;28;20769;-77
2023/08/18 11:06:42;;;;;;;1.90;1.80;;;;;;;35.01;29.49;97918.72;5093221;28;20446;-76
2023/08/18 11:09:11;;;;;;;4.20;2.20;;;;;;;35.26;28.85;97919.28;5093463;28;20490;-76
2023/08/18 11:11:40;;;;;;;1.83;1.70;;;;;;;35.30;27.93;97916.59;5093465;28;20526;-77
2023/08/18 11:14:07;;;;;;;2.30;2.20;;;;;;;34.91;28.23;97915.63;5092936;28;20471;-76
2023/08/18 11:16:37;;;;;;;2.97;2.30;;;;;;;34.82;30.28;97912.19;5092955;28;20534;-76
2023/08/18 11:19:05;;;;;;;2.00;1.90;;;;;;;35.12;29.04;97910.50;5095854;28;20499;-76
2023/08/18 11:21:35;;;;;;;2.60;2.40;;;;;;;34.93;29.66;97902.03;5093462;28;20516;-76
2023/08/18 11:24:04;;;;;;;2.43;1.83;;;;;;;35.62;27.30;97901.19;5092622;28;21392;-77
2023/08/18 11:26:36;;;;;;;1.90;1.73;;;;;;;35.49;28.50;97901.69;5092893;28;20546;-77
2023/08/18 11:29:04;;;;;;;5.17;2.13;;;;;;;35.31;27.97;97893.69;5092786;28;20472;-76
2023/08/18 11:31:31;;;;;;;3.90;2.40;;;;;;;35.10;28.27;97895.16;5092500;28;20799;-76
2023/08/18 11:33:59;;;;;;;2.20;2.00;;;;;;;35.32;28.45;97888.88;5092332;28;20576;-77
2023/08/18 11:36:30;;;;;;;2.00;1.80;;;;;;;35.37;27.71;97890.59;5092474;28;20959;-76